Accueil
METAR-TAF:

METAR-TAF

Aéroports :

Évreux, France

Base aérienne 105 Évreux-Fauville

latitude: 49-01N, longitude: 001-13E, altitude: 141 m

Observation

Le bulletin a été fait il y a 32 minutes, à 03:30 UTC
Vent 11 kt de est/nord-est
Température -1°C
Humidité 59%
Pression 1019 hPa
Visibilité 10 km ou plus
pas de nuages en-dessous de 1500 mètres et pas de cumulonimbus.

METAR: LFOE 250330Z AUTO 06011KT CAVOK M01/M08 Q1019

Heure: 05:02 (04:02 UTC)

Prévision

Le bulletin a été fait il y a 2 heures et 2 minutes, à 02:00 UTC
Prévision valable du 25 à 03 UTC au 26 à 03 UTC
Vent 10 kt de nord-est
Visibilité 10 km ou plus
pas de nuages en-dessous de 1500 mètres et pas de cumulonimbus.

TAF: LFOE 250200Z 2503/2603 05010KT CAVOK

Observations et prévisions météorologiques de plus de 4000 aéroports (messages METAR et TAF).

Les stations disponibles sont représentées par des disques jaunes et rouges sur la carte.

Passer la souris dessus pour voir le nom de la station.

Cliquer dessus pour voir les observations et prévisions météorologiques.

Pour changer de carte: cliquez sur les boutons verts avec une croix noire pour zoomer, sur le bouton vert avec un tiret pour effectuer un zoom arrière, ou sur les flèches vertes pour les cartes adjacentes.


METAR-TAF: